sensor_id;sensor_type;location;lat;lon;timestamp;temperature;humidity
25328;DHT22;13279;51.300;12.394;2024-03-25T00:02:10;5.10;99.90
25328;DHT22;13279;51.300;12.394;2024-03-25T00:04:37;5.10;99.90
25328;DHT22;13279;51.300;12.394;2024-03-25T00:07:03;5.10;99.90
25328;DHT22;13279;51.300;12.394;2024-03-25T00:09:31;5.20;99.90
25328;DHT22;13279;51.300;12.394;2024-03-25T00:11:57;5.20;99.90
25328;DHT22;13279;51.300;12.394;2024-03-25T00:14:24;5.10;99.90
25328;DHT22;13279;51.300;12.394;2024-03-25T00:16:51;5.20;99.90
25328;DHT22;13279;51.300;12.394;2024-03-25T00:19:19;5.10;99.90
25328;DHT22;13279;51.300;12.394;2024-03-25T00:21:46;5.20;99.90
25328;DHT22;13279;51.300;12.394;2024-03-25T00:24:13;5.10;99.90
25328;DHT22;13279;51.300;12.394;2024-03-25T00:26:39;5.10;99.90
25328;DHT22;13279;51.300;12.394;2024-03-25T00:29:07;5.20;99.90
25328;DHT22;13279;51.300;12.394;2024-03-25T00:31:34;5.20;99.90
25328;DHT22;13279;51.300;12.394;2024-03-25T00:34:01;5.20;99.90
25328;DHT22;13279;51.300;12.394;2024-03-25T00:36:29;5.20;99.90
25328;DHT22;13279;51.300;12.394;2024-03-25T00:38:56;5.20;99.90
25328;DHT22;13279;51.300;12.394;2024-03-25T00:41:22;5.20;99.90
25328;DHT22;13279;51.300;12.394;2024-03-25T00:43:50;5.20;99.90
25328;DHT22;13279;51.300;12.394;2024-03-25T00:46:16;5.20;99.90
25328;DHT22;13279;51.300;12.394;2024-03-25T00:48:43;5.20;99.90
25328;DHT22;13279;51.300;12.394;2024-03-25T00:51:10;5.20;99.90
25328;DHT22;13279;51.300;12.394;2024-03-25T00:53:38;5.30;99.90
25328;DHT22;13279;51.300;12.394;2024-03-25T00:56:05;5.10;99.90
25328;DHT22;13279;51.300;12.394;2024-03-25T00:58:33;5.20;99.90
25328;DHT22;13279;51.300;12.394;2024-03-25T01:00:59;5.20;99.90
25328;DHT22;13279;51.300;12.394;2024-03-25T01:03:26;5.20;99.90
25328;DHT22;13279;51.300;12.394;2024-03-25T01:05:53;5.30;99.90
25328;DHT22;13279;51.300;12.394;2024-03-25T01:08:20;5.40;99.90
25328;DHT22;13279;51.300;12.394;2024-03-25T01:10:48;5.30;99.90
25328;DHT22;13279;51.300;12.394;2024-03-25T01:13:16;5.30;99.90
25328;DHT22;13279;51.300;12.394;2024-03-25T01:15:43;5.40;99.90
25328;DHT22;13279;51.300;12.394;2024-03-25T01:18:10;5.30;99.90
25328;DHT22;13279;51.300;12.394;2024-03-25T01:20:36;5.30;99.90
25328;DHT22;13279;51.300;12.394;2024-03-25T01:23:04;5.30;99.90
25328;DHT22;13279;51.300;12.394;2024-03-25T01:25:30;5.40;99.90
25328;DHT22;13279;51.300;12.394;2024-03-25T01:27:59;5.40;99.90
25328;DHT22;13279;51.300;12.394;2024-03-25T01:30:25;5.30;99.90
25328;DHT22;13279;51.300;12.394;2024-03-25T01:32:54;5.40;99.90
25328;DHT22;13279;51.300;12.394;2024-03-25T01:35:20;5.30;99.90
25328;DHT22;13279;51.300;12.394;2024-03-25T01:37:49;5.30;99.90
25328;DHT22;13279;51.300;12.394;2024-03-25T01:40:15;5.40;99.90
25328;DHT22;13279;51.300;12.394;2024-03-25T01:42:42;5.50;99.90
25328;DHT22;13279;51.300;12.394;2024-03-25T01:45:12;5.50;99.90
25328;DHT22;13279;51.300;12.394;2024-03-25T01:47:39;5.40;99.90
25328;DHT22;13279;51.300;12.394;2024-03-25T01:50:07;5.40;99.90
25328;DHT22;13279;51.300;12.394;2024-03-25T01:52:34;5.40;99.90
25328;DHT22;13279;51.300;12.394;2024-03-25T01:55:00;5.30;99.90
25328;DHT22;13279;51.300;12.394;2024-03-25T01:57:29;5.50;99.90
25328;DHT22;13279;51.300;12.394;2024-03-25T01:59:56;5.50;99.90
25328;DHT22;13279;51.300;12.394;2024-03-25T02:02:25;5.30;99.90
25328;DHT22;13279;51.300;12.394;2024-03-25T02:08:40;5.30;99.90
25328;DHT22;13279;51.300;12.394;2024-03-25T02:11:08;5.30;99.90
25328;DHT22;13279;51.300;12.394;2024-03-25T02:13:35;5.30;99.90
25328;DHT22;13279;51.300;12.394;2024-03-25T02:16:03;5.30;99.90
25328;DHT22;13279;51.300;12.394;2024-03-25T02:18:31;5.30;99.90
25328;DHT22;13279;51.300;12.394;2024-03-25T02:20:59;5.30;99.90
25328;DHT22;13279;51.300;12.394;2024-03-25T02:23:25;5.30;99.90
25328;DHT22;13279;51.300;12.394;2024-03-25T02:25:54;5.40;99.90
25328;DHT22;13279;51.300;12.394;2024-03-25T02:28:20;5.40;99.90
25328;DHT22;13279;51.300;12.394;2024-03-25T02:30:48;5.40;99.90
25328;DHT22;13279;51.300;12.394;2024-03-25T02:33:14;5.40;99.90
25328;DHT22;13279;51.300;12.394;2024-03-25T02:35:43;5.40;99.90
25328;DHT22;13279;51.300;12.394;2024-03-25T02:38:10;5.40;99.90
25328;DHT22;13279;51.300;12.394;2024-03-25T02:40:39;5.50;99.90
25328;DHT22;13279;51.300;12.394;2024-03-25T02:43:07;5.50;99.90
25328;DHT22;13279;51.300;12.394;2024-03-25T02:45:34;5.50;99.90
25328;DHT22;13279;51.300;12.394;2024-03-25T02:48:00;5.40;99.90
25328;DHT22;13279;51.300;12.394;2024-03-25T02:50:28;5.40;99.90
25328;DHT22;13279;51.300;12.394;2024-03-25T02:52:54;5.40;99.90
25328;DHT22;13279;51.300;12.394;2024-03-25T02:55:21;5.50;99.90
25328;DHT22;13279;51.300;12.394;2024-03-25T02:57:47;5.40;99.90
25328;DHT22;13279;51.300;12.394;2024-03-25T03:00:17;5.40;99.90
25328;DHT22;13279;51.300;12.394;2024-03-25T03:02:43;5.40;99.90
25328;DHT22;13279;51.300;12.394;2024-03-25T03:05:10;5.40;99.90
25328;DHT22;13279;51.300;12.394;2024-03-25T03:07:36;5.40;99.90
25328;DHT22;13279;51.300;12.394;2024-03-25T03:10:05;5.40;99.90
25328;DHT22;13279;51.300;12.394;2024-03-25T03:12:31;5.40;99.90
25328;DHT22;13279;51.300;12.394;2024-03-25T03:14:58;5.40;99.90
25328;DHT22;13279;51.300;12.394;2024-03-25T03:17:26;5.40;99.90
25328;DHT22;13279;51.300;12.394;2024-03-25T03:19:53;5.40;99.90
25328;DHT22;13279;51.300;12.394;2024-03-25T03:22:20;5.40;99.90
25328;DHT22;13279;51.300;12.394;2024-03-25T03:24:47;5.40;99.90
25328;DHT22;13279;51.300;12.394;2024-03-25T03:27:15;5.40;99.90
25328;DHT22;13279;51.300;12.394;2024-03-25T03:29:42;5.40;99.90
25328;DHT22;13279;51.300;12.394;2024-03-25T03:32:08;5.40;99.90
25328;DHT22;13279;51.300;12.394;2024-03-25T03:34:37;5.40;99.90
25328;DHT22;13279;51.300;12.394;2024-03-25T03:37:04;5.30;99.90
25328;DHT22;13279;51.300;12.394;2024-03-25T03:39:31;5.30;99.90
25328;DHT22;13279;51.300;12.394;2024-03-25T03:41:58;5.30;99.90
25328;DHT22;13279;51.300;12.394;2024-03-25T03:44:26;5.30;99.90
25328;DHT22;13279;51.300;12.394;2024-03-25T03:46:52;5.30;99.90
25328;DHT22;13279;51.300;12.394;2024-03-25T03:49:20;5.30;99.90
25328;DHT22;13279;51.300;12.394;2024-03-25T03:51:48;5.30;99.90
25328;DHT22;13279;51.300;12.394;2024-03-25T03:54:15;5.30;99.90
25328;DHT22;13279;51.300;12.394;2024-03-25T03:56:41;5.30;99.90
25328;DHT22;13279;51.300;12.394;2024-03-25T03:59:09;5.30;99.90
25328;DHT22;13279;51.300;12.394;2024-03-25T04:01:35;5.20;99.90
25328;DHT22;13279;51.300;12.394;2024-03-25T04:04:02;5.00;99.90
25328;DHT22;13279;51.300;12.394;2024-03-25T04:06:28;5.10;99.90
25328;DHT22;13279;51.300;12.394;2024-03-25T04:08:58;5.10;99.90
25328;DHT22;13279;51.300;12.394;2024-03-25T04:11:24;5.00;99.90
25328;DHT22;13279;51.300;12.394;2024-03-25T04:13:52;5.00;99.90
25328;DHT22;13279;51.300;12.394;2024-03-25T04:16:18;5.10;99.90
25328;DHT22;13279;51.300;12.394;2024-03-25T04:18:47;5.00;99.90
25328;DHT22;13279;51.300;12.394;2024-03-25T04:21:14;5.00;99.90
25328;DHT22;13279;51.300;12.394;2024-03-25T04:23:41;5.00;99.90
25328;DHT22;13279;51.300;12.394;2024-03-25T04:26:10;5.10;99.90
25328;DHT22;13279;51.300;12.394;2024-03-25T04:28:38;4.90;99.90
25328;DHT22;13279;51.300;12.394;2024-03-25T04:31:05;4.90;99.90
25328;DHT22;13279;51.300;12.394;2024-03-25T04:33:32;5.00;99.90
25328;DHT22;13279;51.300;12.394;2024-03-25T04:35:58;5.00;99.90
25328;DHT22;13279;51.300;12.394;2024-03-25T04:38:26;5.00;99.90
25328;DHT22;13279;51.300;12.394;2024-03-25T04:40:52;4.90;99.90
25328;DHT22;13279;51.300;12.394;2024-03-25T04:43:19;4.90;99.90
25328;DHT22;13279;51.300;12.394;2024-03-25T04:45:46;4.90;99.90
25328;DHT22;13279;51.300;12.394;2024-03-25T04:48:12;4.90;99.90
25328;DHT22;13279;51.300;12.394;2024-03-25T04:50:39;4.80;99.90
25328;DHT22;13279;51.300;12.394;2024-03-25T04:53:05;4.90;99.90
25328;DHT22;13279;51.300;12.394;2024-03-25T04:55:32;4.90;99.90
25328;DHT22;13279;51.300;12.394;2024-03-25T04:57:58;5.00;99.90
25328;DHT22;13279;51.300;12.394;2024-03-25T05:00:26;5.10;99.90
25328;DHT22;13279;51.300;12.394;2024-03-25T05:02:52;5.00;99.90
25328;DHT22;13279;51.300;12.394;2024-03-25T05:05:19;5.00;99.90
25328;DHT22;13279;51.300;12.394;2024-03-25T05:07:45;5.00;99.90
25328;DHT22;13279;51.300;12.394;2024-03-25T05:10:11;5.00;99.90
25328;DHT22;13279;51.300;12.394;2024-03-25T05:12:38;5.00;99.90
25328;DHT22;13279;51.300;12.394;2024-03-25T05:15:05;5.10;99.90
25328;DHT22;13279;51.300;12.394;2024-03-25T05:17:33;5.10;99.90
25328;DHT22;13279;51.300;12.394;2024-03-25T05:20:00;5.10;99.90
25328;DHT22;13279;51.300;12.394;2024-03-25T05:22:26;5.10;99.90
25328;DHT22;13279;51.300;12.394;2024-03-25T05:24:53;5.20;99.90
25328;DHT22;13279;51.300;12.394;2024-03-25T05:27:19;5.20;99.90
25328;DHT22;13279;51.300;12.394;2024-03-25T05:29:45;5.20;99.90
25328;DHT22;13279;51.300;12.394;2024-03-25T05:32:11;5.20;99.90
25328;DHT22;13279;51.300;12.394;2024-03-25T05:34:39;5.20;99.90
25328;DHT22;13279;51.300;12.394;2024-03-25T05:37:06;5.20;99.90
25328;DHT22;13279;51.300;12.394;2024-03-25T05:39:32;5.20;99.90
25328;DHT22;13279;51.300;12.394;2024-03-25T05:41:58;5.20;99.90
25328;DHT22;13279;51.300;12.394;2024-03-25T05:44:25;5.30;99.90
25328;DHT22;13279;51.300;12.394;2024-03-25T05:46:51;5.30;99.90
25328;DHT22;13279;51.300;12.394;2024-03-25T05:49:17;5.30;99.90
25328;DHT22;13279;51.300;12.394;2024-03-25T05:51:44;5.30;99.90
25328;DHT22;13279;51.300;12.394;2024-03-25T05:54:11;5.30;99.90
25328;DHT22;13279;51.300;12.394;2024-03-25T05:56:37;5.30;99.90
25328;DHT22;13279;51.300;12.394;2024-03-25T05:59:03;5.30;99.90
25328;DHT22;13279;51.300;12.394;2024-03-25T06:01:30;5.20;99.90
25328;DHT22;13279;51.300;12.394;2024-03-25T06:03:56;5.20;99.90
25328;DHT22;13279;51.300;12.394;2024-03-25T06:06:23;5.20;99.90
25328;DHT22;13279;51.300;12.394;2024-03-25T06:08:50;5.20;99.90
25328;DHT22;13279;51.300;12.394;2024-03-25T06:11:17;5.20;99.90
25328;DHT22;13279;51.300;12.394;2024-03-25T06:13:45;5.30;99.90
25328;DHT22;13279;51.300;12.394;2024-03-25T06:16:12;5.30;99.90
25328;DHT22;13279;51.300;12.394;2024-03-25T06:18:38;5.30;99.90
25328;DHT22;13279;51.300;12.394;2024-03-25T06:21:04;5.40;99.90
25328;DHT22;13279;51.300;12.394;2024-03-25T06:23:31;5.30;99.90
25328;DHT22;13279;51.300;12.394;2024-03-25T06:25:59;5.20;99.90
25328;DHT22;13279;51.300;12.394;2024-03-25T06:28:25;5.30;99.90
25328;DHT22;13279;51.300;12.394;2024-03-25T06:30:52;5.40;99.90
25328;DHT22;13279;51.300;12.394;2024-03-25T06:33:37;5.40;99.90
25328;DHT22;13279;51.300;12.394;2024-03-25T06:36:22;5.40;99.90
25328;DHT22;13279;51.300;12.394;2024-03-25T06:38:48;5.40;99.90
25328;DHT22;13279;51.300;12.394;2024-03-25T06:41:16;5.50;99.90
25328;DHT22;13279;51.300;12.394;2024-03-25T06:43:43;5.50;99.90
25328;DHT22;13279;51.300;12.394;2024-03-25T06:46:09;5.60;99.90
25328;DHT22;13279;51.300;12.394;2024-03-25T06:48:35;5.70;99.90
25328;DHT22;13279;51.300;12.394;2024-03-25T06:51:04;5.70;99.90
25328;DHT22;13279;51.300;12.394;2024-03-25T06:53:31;5.70;99.90
25328;DHT22;13279;51.300;12.394;2024-03-25T06:55:58;5.80;99.90
25328;DHT22;13279;51.300;12.394;2024-03-25T06:58:27;5.80;99.90
25328;DHT22;13279;51.300;12.394;2024-03-25T07:00:54;6.00;99.90
25328;DHT22;13279;51.300;12.394;2024-03-25T07:03:22;6.10;99.90
25328;DHT22;13279;51.300;12.394;2024-03-25T07:05:49;6.10;99.90
25328;DHT22;13279;51.300;12.394;2024-03-25T07:08:16;6.20;99.90
25328;DHT22;13279;51.300;12.394;2024-03-25T07:10:42;6.20;99.90
25328;DHT22;13279;51.300;12.394;2024-03-25T07:13:09;6.20;99.90
25328;DHT22;13279;51.300;12.394;2024-03-25T07:15:37;6.20;99.90
25328;DHT22;13279;51.300;12.394;2024-03-25T07:18:04;6.20;99.90
25328;DHT22;13279;51.300;12.394;2024-03-25T07:20:30;6.20;99.90
25328;DHT22;13279;51.300;12.394;2024-03-25T07:22:56;6.40;99.90
25328;DHT22;13279;51.300;12.394;2024-03-25T07:25:23;6.50;99.90
25328;DHT22;13279;51.300;12.394;2024-03-25T07:27:49;6.60;99.90
25328;DHT22;13279;51.300;12.394;2024-03-25T07:30:16;6.70;99.90
25328;DHT22;13279;51.300;12.394;2024-03-25T07:32:44;6.70;99.90
25328;DHT22;13279;51.300;12.394;2024-03-25T07:35:10;6.80;99.90
25328;DHT22;13279;51.300;12.394;2024-03-25T07:37:36;6.90;99.90
25328;DHT22;13279;51.300;12.394;2024-03-25T07:40:07;6.90;99.90
25328;DHT22;13279;51.300;12.394;2024-03-25T07:42:35;6.90;99.90
25328;DHT22;13279;51.300;12.394;2024-03-25T07:45:01;6.90;99.90
25328;DHT22;13279;51.300;12.394;2024-03-25T07:47:28;7.00;99.90
25328;DHT22;13279;51.300;12.394;2024-03-25T07:49:56;7.10;99.90
25328;DHT22;13279;51.300;12.394;2024-03-25T07:52:22;7.20;99.90
25328;DHT22;13279;51.300;12.394;2024-03-25T07:54:48;7.20;99.90
25328;DHT22;13279;51.300;12.394;2024-03-25T07:57:15;7.30;99.90
25328;DHT22;13279;51.300;12.394;2024-03-25T07:59:42;7.30;99.90
25328;DHT22;13279;51.300;12.394;2024-03-25T08:02:08;7.30;99.90
25328;DHT22;13279;51.300;12.394;2024-03-25T08:04:34;7.30;99.90
25328;DHT22;13279;51.300;12.394;2024-03-25T08:07:02;7.30;99.90
25328;DHT22;13279;51.300;12.394;2024-03-25T08:09:28;7.30;99.90
25328;DHT22;13279;51.300;12.394;2024-03-25T08:11:55;7.30;99.90
25328;DHT22;13279;51.300;12.394;2024-03-25T08:14:21;7.30;99.90
25328;DHT22;13279;51.300;12.394;2024-03-25T08:16:48;7.40;99.90
25328;DHT22;13279;51.300;12.394;2024-03-25T08:19:14;7.40;99.90
25328;DHT22;13279;51.300;12.394;2024-03-25T08:21:41;7.50;99.90
25328;DHT22;13279;51.300;12.394;2024-03-25T08:24:08;7.60;99.90
25328;DHT22;13279;51.300;12.394;2024-03-25T08:26:35;7.40;99.90
25328;DHT22;13279;51.300;12.394;2024-03-25T08:29:01;7.40;99.90
25328;DHT22;13279;51.300;12.394;2024-03-25T08:31:27;7.30;99.90
25328;DHT22;13279;51.300;12.394;2024-03-25T08:33:54;7.30;99.90
25328;DHT22;13279;51.300;12.394;2024-03-25T08:36:20;7.20;99.90
25328;DHT22;13279;51.300;12.394;2024-03-25T08:38:46;7.20;99.90
25328;DHT22;13279;51.300;12.394;2024-03-25T08:41:14;7.10;99.90
25328;DHT22;13279;51.300;12.394;2024-03-25T08:43:40;7.20;99.90
25328;DHT22;13279;51.300;12.394;2024-03-25T08:46:07;7.20;99.90
25328;DHT22;13279;51.300;12.394;2024-03-25T08:48:33;7.10;99.90
25328;DHT22;13279;51.300;12.394;2024-03-25T08:51:00;7.20;99.90
25328;DHT22;13279;51.300;12.394;2024-03-25T08:53:26;7.20;99.90
25328;DHT22;13279;51.300;12.394;2024-03-25T08:55:52;7.30;99.90
25328;DHT22;13279;51.300;12.394;2024-03-25T08:58:19;7.30;99.90
25328;DHT22;13279;51.300;12.394;2024-03-25T09:00:46;7.40;99.90
25328;DHT22;13279;51.300;12.394;2024-03-25T09:03:12;7.60;99.90
25328;DHT22;13279;51.300;12.394;2024-03-25T09:05:38;7.90;99.90
25328;DHT22;13279;51.300;12.394;2024-03-25T09:08:08;8.10;99.90
25328;DHT22;13279;51.300;12.394;2024-03-25T09:10:35;8.20;99.90
25328;DHT22;13279;51.300;12.394;2024-03-25T09:13:21;8.40;99.90
25328;DHT22;13279;51.300;12.394;2024-03-25T09:15:48;8.60;99.90
25328;DHT22;13279;51.300;12.394;2024-03-25T09:18:14;8.60;99.90
25328;DHT22;13279;51.300;12.394;2024-03-25T09:20:41;8.60;99.90
25328;DHT22;13279;51.300;12.394;2024-03-25T09:23:07;8.50;99.90
25328;DHT22;13279;51.300;12.394;2024-03-25T09:25:33;8.60;99.90
25328;DHT22;13279;51.300;12.394;2024-03-25T09:27:59;8.50;99.90
25328;DHT22;13279;51.300;12.394;2024-03-25T09:30:27;8.30;99.90
25328;DHT22;13279;51.300;12.394;2024-03-25T09:32:54;8.00;99.90
25328;DHT22;13279;51.300;12.394;2024-03-25T09:35:20;7.80;99.90
25328;DHT22;13279;51.300;12.394;2024-03-25T09:37:46;7.60;99.90
25328;DHT22;13279;51.300;12.394;2024-03-25T09:40:12;7.40;99.90
25328;DHT22;13279;51.300;12.394;2024-03-25T09:42:46;7.30;99.90
25328;DHT22;13279;51.300;12.394;2024-03-25T09:45:15;7.10;99.90
25328;DHT22;13279;51.300;12.394;2024-03-25T09:47:46;6.80;99.90
25328;DHT22;13279;51.300;12.394;2024-03-25T09:50:13;6.50;99.90
25328;DHT22;13279;51.300;12.394;2024-03-25T09:52:39;6.30;99.90
25328;DHT22;13279;51.300;12.394;2024-03-25T09:55:07;6.30;99.90
25328;DHT22;13279;51.300;12.394;2024-03-25T09:57:34;6.40;99.90
25328;DHT22;13279;51.300;12.394;2024-03-25T10:00:01;6.40;99.90
25328;DHT22;13279;51.300;12.394;2024-03-25T10:02:40;6.70;99.90
25328;DHT22;13279;51.300;12.394;2024-03-25T10:05:08;6.90;99.90
25328;DHT22;13279;51.300;12.394;2024-03-25T10:07:35;6.80;99.90
25328;DHT22;13279;51.300;12.394;2024-03-25T10:10:04;6.70;99.90
25328;DHT22;13279;51.300;12.394;2024-03-25T10:12:30;6.60;99.90
25328;DHT22;13279;51.300;12.394;2024-03-25T10:14:57;6.60;99.90
25328;DHT22;13279;51.300;12.394;2024-03-25T10:17:23;6.50;99.90
25328;DHT22;13279;51.300;12.394;2024-03-25T10:19:50;6.80;99.90
25328;DHT22;13279;51.300;12.394;2024-03-25T10:22:17;7.00;99.90
25328;DHT22;13279;51.300;12.394;2024-03-25T10:24:44;7.20;99.90
25328;DHT22;13279;51.300;12.394;2024-03-25T10:27:17;7.40;1.00
25328;DHT22;13279;51.300;12.394;2024-03-25T10:29:43;7.40;1.00
25328;DHT22;13279;51.300;12.394;2024-03-25T10:32:09;7.40;1.00
25328;DHT22;13279;51.300;12.394;2024-03-25T10:34:35;7.40;1.00
25328;DHT22;13279;51.300;12.394;2024-03-25T10:37:04;7.60;1.00
25328;DHT22;13279;51.300;12.394;2024-03-25T10:39:34;7.60;1.00
25328;DHT22;13279;51.300;12.394;2024-03-25T10:42:04;7.40;99.90
25328;DHT22;13279;51.300;12.394;2024-03-25T10:44:31;7.30;99.90
25328;DHT22;13279;51.300;12.394;2024-03-25T10:47:01;7.20;67.20
25328;DHT22;13279;51.300;12.394;2024-03-25T10:49:33;7.30;99.90
25328;DHT22;13279;51.300;12.394;2024-03-25T10:52:01;7.30;79.00
25328;DHT22;13279;51.300;12.394;2024-03-25T10:54:32;7.40;99.90
25328;DHT22;13279;51.300;12.394;2024-03-25T10:57:00;7.50;99.90
25328;DHT22;13279;51.300;12.394;2024-03-25T10:59:30;7.60;1.00
25328;DHT22;13279;51.300;12.394;2024-03-25T11:01:57;7.60;99.90
25328;DHT22;13279;51.300;12.394;2024-03-25T11:04:23;7.60;1.00
25328;DHT22;13279;51.300;12.394;2024-03-25T11:06:50;7.50;1.00
25328;DHT22;13279;51.300;12.394;2024-03-25T11:09:23;7.50;1.00
25328;DHT22;13279;51.300;12.394;2024-03-25T11:11:54;7.50;99.90
25328;DHT22;13279;51.300;12.394;2024-03-25T11:14:20;7.40;99.90
25328;DHT22;13279;51.300;12.394;2024-03-25T11:16:54;7.30;1.00
25328;DHT22;13279;51.300;12.394;2024-03-25T11:19:25;7.30;1.00
25328;DHT22;13279;51.300;12.394;2024-03-25T11:21:51;7.30;1.00
25328;DHT22;13279;51.300;12.394;2024-03-25T11:24:27;7.30;1.00
25328;DHT22;13279;51.300;12.394;2024-03-25T11:26:55;7.10;99.90
25328;DHT22;13279;51.300;12.394;2024-03-25T11:29:21;6.90;99.90
25328;DHT22;13279;51.300;12.394;2024-03-25T11:31:49;6.80;99.90
25328;DHT22;13279;51.300;12.394;2024-03-25T11:34:18;6.70;99.90
25328;DHT22;13279;51.300;12.394;2024-03-25T11:36:45;6.70;1.00
25328;DHT22;13279;51.300;12.394;2024-03-25T11:39:12;6.70;1.00
25328;DHT22;13279;51.300;12.394;2024-03-25T11:41:39;6.60;1.00
25328;DHT22;13279;51.300;12.394;2024-03-25T11:44:08;6.70;1.00
25328;DHT22;13279;51.300;12.394;2024-03-25T11:46:36;6.80;1.00
25328;DHT22;13279;51.300;12.394;2024-03-25T11:49:04;6.90;1.00
25328;DHT22;13279;51.300;12.394;2024-03-25T11:51:30;7.10;1.00
25328;DHT22;13279;51.300;12.394;2024-03-25T11:53:56;7.40;1.00
25328;DHT22;13279;51.300;12.394;2024-03-25T11:56:22;7.70;1.00
25328;DHT22;13279;51.300;12.394;2024-03-25T11:58:49;8.00;99.90
25328;DHT22;13279;51.300;12.394;2024-03-25T12:01:17;8.10;99.90
25328;DHT22;13279;51.300;12.394;2024-03-25T12:03:43;8.10;1.00
25328;DHT22;13279;51.300;12.394;2024-03-25T12:06:10;8.10;1.00
25328;DHT22;13279;51.300;12.394;2024-03-25T12:08:36;8.00;1.00
25328;DHT22;13279;51.300;12.394;2024-03-25T12:11:02;8.00;99.90
25328;DHT22;13279;51.300;12.394;2024-03-25T12:13:44;8.00;1.00
25328;DHT22;13279;51.300;12.394;2024-03-25T12:16:11;8.10;99.90
25328;DHT22;13279;51.300;12.394;2024-03-25T12:18:40;8.10;1.50
25328;DHT22;13279;51.300;12.394;2024-03-25T12:21:07;8.30;1.00
25328;DHT22;13279;51.300;12.394;2024-03-25T12:23:34;8.40;1.00
25328;DHT22;13279;51.300;12.394;2024-03-25T12:26:00;8.50;99.90
25328;DHT22;13279;51.300;12.394;2024-03-25T12:28:27;8.50;1.00
25328;DHT22;13279;51.300;12.394;2024-03-25T12:30:55;8.50;99.90
25328;DHT22;13279;51.300;12.394;2024-03-25T12:33:22;8.50;1.00
25328;DHT22;13279;51.300;12.394;2024-03-25T12:35:50;8.50;1.00
25328;DHT22;13279;51.300;12.394;2024-03-25T12:38:24;8.50;1.00
25328;DHT22;13279;51.300;12.394;2024-03-25T12:40:50;8.60;99.90
25328;DHT22;13279;51.300;12.394;2024-03-25T12:43:17;8.50;99.90
25328;DHT22;13279;51.300;12.394;2024-03-25T12:45:43;8.50;99.90
25328;DHT22;13279;51.300;12.394;2024-03-25T12:48:09;8.70;1.00
25328;DHT22;13279;51.300;12.394;2024-03-25T12:50:35;8.80;1.00
25328;DHT22;13279;51.300;12.394;2024-03-25T12:53:04;8.90;99.90
25328;DHT22;13279;51.300;12.394;2024-03-25T12:55:30;9.00;99.90
25328;DHT22;13279;51.300;12.394;2024-03-25T12:57:56;9.10;99.90
25328;DHT22;13279;51.300;12.394;2024-03-25T13:00:23;9.10;99.90
25328;DHT22;13279;51.300;12.394;2024-03-25T13:02:49;9.20;99.90
25328;DHT22;13279;51.300;12.394;2024-03-25T13:05:16;9.30;99.90
25328;DHT22;13279;51.300;12.394;2024-03-25T13:07:42;9.20;1.00
25328;DHT22;13279;51.300;12.394;2024-03-25T13:10:09;9.20;25.40
25328;DHT22;13279;51.300;12.394;2024-03-25T13:12:36;9.20;1.00
25328;DHT22;13279;51.300;12.394;2024-03-25T13:15:03;9.30;99.90
25328;DHT22;13279;51.300;12.394;2024-03-25T13:17:29;9.50;1.00
25328;DHT22;13279;51.300;12.394;2024-03-25T13:19:56;9.50;15.90
25328;DHT22;13279;51.300;12.394;2024-03-25T13:22:22;9.90;99.90
25328;DHT22;13279;51.300;12.394;2024-03-25T13:24:48;10.20;99.90
25328;DHT22;13279;51.300;12.394;2024-03-25T13:27:16;10.90;99.90
25328;DHT22;13279;51.300;12.394;2024-03-25T13:29:43;11.40;99.90
25328;DHT22;13279;51.300;12.394;2024-03-25T13:32:09;11.80;99.90
25328;DHT22;13279;51.300;12.394;2024-03-25T13:34:35;12.00;99.90
25328;DHT22;13279;51.300;12.394;2024-03-25T13:37:01;11.90;99.90
25328;DHT22;13279;51.300;12.394;2024-03-25T13:39:27;11.70;99.90
25328;DHT22;13279;51.300;12.394;2024-03-25T13:41:53;11.40;99.90
25328;DHT22;13279;51.300;12.394;2024-03-25T13:44:21;11.30;99.90
25328;DHT22;13279;51.300;12.394;2024-03-25T13:46:47;11.00;99.90
25328;DHT22;13279;51.300;12.394;2024-03-25T13:49:14;10.50;99.90
25328;DHT22;13279;51.300;12.394;2024-03-25T13:51:40;10.50;99.90
25328;DHT22;13279;51.300;12.394;2024-03-25T13:54:06;10.50;99.90
25328;DHT22;13279;51.300;12.394;2024-03-25T13:56:32;10.50;99.90
25328;DHT22;13279;51.300;12.394;2024-03-25T13:58:58;10.60;99.90
25328;DHT22;13279;51.300;12.394;2024-03-25T14:01:26;10.40;99.90
25328;DHT22;13279;51.300;12.394;2024-03-25T14:03:53;10.30;99.90
25328;DHT22;13279;51.300;12.394;2024-03-25T14:06:19;10.30;99.90
25328;DHT22;13279;51.300;12.394;2024-03-25T14:08:45;10.50;99.90
25328;DHT22;13279;51.300;12.394;2024-03-25T14:11:11;10.70;99.90
25328;DHT22;13279;51.300;12.394;2024-03-25T14:13:37;10.90;99.90
25328;DHT22;13279;51.300;12.394;2024-03-25T14:16:04;11.10;99.90
25328;DHT22;13279;51.300;12.394;2024-03-25T14:18:31;11.10;99.90
25328;DHT22;13279;51.300;12.394;2024-03-25T14:20:57;11.80;99.90
25328;DHT22;13279;51.300;12.394;2024-03-25T14:23:24;11.80;99.90
25328;DHT22;13279;51.300;12.394;2024-03-25T14:25:50;11.60;99.90
25328;DHT22;13279;51.300;12.394;2024-03-25T14:28:17;11.30;99.90
25328;DHT22;13279;51.300;12.394;2024-03-25T14:30:43;11.50;99.90
25328;DHT22;13279;51.300;12.394;2024-03-25T14:33:09;12.60;99.90
25328;DHT22;13279;51.300;12.394;2024-03-25T14:35:37;13.20;99.90
25328;DHT22;13279;51.300;12.394;2024-03-25T14:38:04;12.90;99.90
25328;DHT22;13279;51.300;12.394;2024-03-25T14:40:30;12.50;99.90
25328;DHT22;13279;51.300;12.394;2024-03-25T14:42:57;12.10;99.90
25328;DHT22;13279;51.300;12.394;2024-03-25T14:45:23;11.90;99.90
25328;DHT22;13279;51.300;12.394;2024-03-25T14:47:49;11.90;99.90
25328;DHT22;13279;51.300;12.394;2024-03-25T14:50:15;12.20;99.90
25328;DHT22;13279;51.300;12.394;2024-03-25T14:52:43;12.30;99.90
25328;DHT22;13279;51.300;12.394;2024-03-25T14:55:09;12.30;99.90
25328;DHT22;13279;51.300;12.394;2024-03-25T14:57:36;12.10;99.90
25328;DHT22;13279;51.300;12.394;2024-03-25T15:00:02;11.60;99.90
25328;DHT22;13279;51.300;12.394;2024-03-25T15:02:29;11.40;99.90
25328;DHT22;13279;51.300;12.394;2024-03-25T15:04:55;11.20;99.90
25328;DHT22;13279;51.300;12.394;2024-03-25T15:07:21;11.30;99.90
25328;DHT22;13279;51.300;12.394;2024-03-25T15:09:49;11.20;99.90
25328;DHT22;13279;51.300;12.394;2024-03-25T15:12:15;11.00;99.90
25328;DHT22;13279;51.300;12.394;2024-03-25T15:14:42;10.80;99.90
25328;DHT22;13279;51.300;12.394;2024-03-25T15:17:08;10.70;99.90
25328;DHT22;13279;51.300;12.394;2024-03-25T15:19:35;10.60;99.90
25328;DHT22;13279;51.300;12.394;2024-03-25T15:22:02;10.70;99.90
25328;DHT22;13279;51.300;12.394;2024-03-25T15:24:28;10.70;99.90
25328;DHT22;13279;51.300;12.394;2024-03-25T15:26:55;10.80;99.90
25328;DHT22;13279;51.300;12.394;2024-03-25T15:29:22;11.30;99.90
25328;DHT22;13279;51.300;12.394;2024-03-25T15:31:48;11.40;99.90
25328;DHT22;13279;51.300;12.394;2024-03-25T15:34:15;11.80;99.90